CMP451 TJSJ-MPTO
Flight info
| Callsign | CMP451 |
|---|---|
| Flight time | N/A |
| Altitude | 32000 |
| Route | DDP G633 MAZ DCT SATOE UL221 VESKA UM525 SIROT MEVID1 |
| Aircraft | B38M/M-SDE1FGHILORVWXY/HB1 |
Departure
| Time | N/A |
|---|---|
| Airport | Luis Munoz Marin International Airport (TJSJ) |
Arrival
| Time | 2026-05-06 04:20 |
|---|---|
| Airport | Tocumen International Airport (MPTO) |
| Time | Latitude | Longitude | Altitude | Speed | Heading |
|---|---|---|---|---|---|
| 2026-05-06 03:48 | 10.64746 | -77.32386 | 31951 ft | 454 kts | 231° |
| 2026-05-06 03:48 | 10.60682 | -77.37291 | 31948 ft | 454 kts | 231° |
| 2026-05-06 03:49 | 10.56618 | -77.42202 | 31943 ft | 453 kts | 231° |
| 2026-05-06 03:49 | 10.52578 | -77.47112 | 31944 ft | 453 kts | 231° |
| 2026-05-06 03:50 | 10.48527 | -77.52027 | 31947 ft | 453 kts | 230° |
| 2026-05-06 03:50 | 10.44480 | -77.56938 | 31950 ft | 453 kts | 231° |
| 2026-05-06 03:51 | 10.40430 | -77.61850 | 31948 ft | 453 kts | 230° |
| 2026-05-06 03:51 | 10.36415 | -77.66715 | 31950 ft | 453 kts | 231° |
| 2026-05-06 03:52 | 10.32364 | -77.71624 | 31942 ft | 453 kts | 231° |
| 2026-05-06 03:52 | 10.28298 | -77.76548 | 31947 ft | 454 kts | 231° |
| 2026-05-06 03:53 | 10.24302 | -77.81384 | 31617 ft | 439 kts | 230° |
| 2026-05-06 03:53 | 10.22347 | -77.83751 | 31081 ft | 438 kts | 231° |
| 2026-05-06 03:53 | 10.20396 | -77.86111 | 30472 ft | 434 kts | 230° |
| 2026-05-06 03:54 | 10.18477 | -77.88431 | 29948 ft | 425 kts | 230° |
| 2026-05-06 03:54 | 10.16605 | -77.90695 | 29478 ft | 413 kts | 230° |
| 2026-05-06 03:54 | 10.14774 | -77.92909 | 29052 ft | 402 kts | 230° |
| 2026-05-06 03:54 | 10.12996 | -77.95059 | 28629 ft | 392 kts | 230° |
| 2026-05-06 03:55 | 10.11265 | -77.97151 | 28230 ft | 382 kts | 230° |
| 2026-05-06 03:55 | 10.09563 | -77.99208 | 27850 ft | 390 kts | 230° |
| 2026-05-06 03:55 | 10.07805 | -78.01332 | 27414 ft | 395 kts | 230° |
| 2026-05-06 03:55 | 10.06029 | -78.03476 | 27040 ft | 397 kts | 230° |
| 2026-05-06 03:56 | 10.04260 | -78.05613 | 26631 ft | 395 kts | 230° |
| 2026-05-06 03:56 | 10.02491 | -78.07749 | 26224 ft | 395 kts | 230° |
| 2026-05-06 03:56 | 10.00725 | -78.09882 | 25837 ft | 392 kts | 230° |
| 2026-05-06 03:56 | 9.98976 | -78.11993 | 25435 ft | 390 kts | 230° |
| 2026-05-06 03:57 | 9.97239 | -78.14089 | 25055 ft | 386 kts | 230° |
| 2026-05-06 03:57 | 9.95514 | -78.16170 | 24672 ft | 383 kts | 230° |
| 2026-05-06 03:57 | 9.93821 | -78.18213 | 24301 ft | 381 kts | 230° |
| 2026-05-06 03:57 | 9.92119 | -78.20265 | 23930 ft | 380 kts | 230° |
| 2026-05-06 03:58 | 9.90421 | -78.22313 | 23552 ft | 378 kts | 230° |
| 2026-05-06 03:58 | 9.88734 | -78.24347 | 23113 ft | 376 kts | 230° |
| 2026-05-06 03:58 | 9.87055 | -78.26372 | 22719 ft | 373 kts | 230° |
| 2026-05-06 03:58 | 9.85390 | -78.28378 | 22357 ft | 372 kts | 229° |
| 2026-05-06 03:59 | 9.83726 | -78.30384 | 21995 ft | 370 kts | 229° |
| 2026-05-06 03:59 | 9.82070 | -78.32378 | 21632 ft | 368 kts | 229° |
| 2026-05-06 03:59 | 9.80443 | -78.34339 | 21278 ft | 366 kts | 229° |
| 2026-05-06 03:59 | 9.78809 | -78.36307 | 20922 ft | 364 kts | 229° |
| 2026-05-06 04:00 | 9.77178 | -78.38271 | 20565 ft | 362 kts | 229° |
| 2026-05-06 04:00 | 9.75560 | -78.40220 | 20217 ft | 360 kts | 229° |
| 2026-05-06 04:00 | 9.73947 | -78.42161 | 19870 ft | 358 kts | 229° |
| 2026-05-06 04:00 | 9.72352 | -78.44081 | 19526 ft | 357 kts | 228° |
| 2026-05-06 04:01 | 9.70751 | -78.46009 | 19179 ft | 355 kts | 228° |
| 2026-05-06 04:01 | 9.69182 | -78.47896 | 18837 ft | 354 kts | 228° |
| 2026-05-06 04:01 | 9.67575 | -78.49830 | 18487 ft | 353 kts | 228° |
| 2026-05-06 04:01 | 9.65996 | -78.51730 | 18130 ft | 352 kts | 228° |
| 2026-05-06 04:02 | 9.64418 | -78.53628 | 17748 ft | 351 kts | 227° |
| 2026-05-06 04:02 | 9.62900 | -78.55511 | 17334 ft | 351 kts | 231° |
| 2026-05-06 04:02 | 9.61424 | -78.57479 | 16973 ft | 349 kts | 231° |
| 2026-05-06 04:02 | 9.59951 | -78.59431 | 16648 ft | 347 kts | 230° |
| 2026-05-06 04:03 | 9.58976 | -78.60718 | 16401 ft | 346 kts | 230° |
| 2026-05-06 04:03 | 9.57025 | -78.63289 | 15980 ft | 342 kts | 230° |
| 2026-05-06 04:03 | 9.55576 | -78.65198 | 15652 ft | 340 kts | 230° |
| 2026-05-06 04:03 | 9.54136 | -78.67093 | 15320 ft | 339 kts | 230° |
| 2026-05-06 04:04 | 9.52703 | -78.68980 | 14974 ft | 337 kts | 230° |
| 2026-05-06 04:04 | 9.51272 | -78.70863 | 14630 ft | 336 kts | 230° |
| 2026-05-06 04:04 | 9.49845 | -78.72739 | 14289 ft | 336 kts | 230° |
| 2026-05-06 04:04 | 9.48420 | -78.74614 | 13948 ft | 335 kts | 230° |
| 2026-05-06 04:05 | 9.47000 | -78.76481 | 13585 ft | 335 kts | 230° |
| 2026-05-06 04:05 | 9.45579 | -78.78349 | 13200 ft | 334 kts | 230° |
| 2026-05-06 04:05 | 9.44164 | -78.80210 | 12847 ft | 332 kts | 230° |
| 2026-05-06 04:05 | 9.42771 | -78.82041 | 12504 ft | 331 kts | 230° |
| 2026-05-06 04:06 | 9.41373 | -78.83879 | 12163 ft | 329 kts | 230° |
| 2026-05-06 04:06 | 9.39977 | -78.85714 | 11823 ft | 328 kts | 230° |
| 2026-05-06 04:06 | 9.38587 | -78.87540 | 11485 ft | 327 kts | 230° |
| 2026-05-06 04:06 | 9.37198 | -78.89364 | 11146 ft | 325 kts | 231° |
| 2026-05-06 04:07 | 9.35821 | -78.91174 | 10805 ft | 323 kts | 231° |
| 2026-05-06 04:07 | 9.34463 | -78.92957 | 10469 ft | 317 kts | 231° |
| 2026-05-06 04:07 | 9.33131 | -78.94707 | 10196 ft | 309 kts | 231° |
| 2026-05-06 04:07 | 9.31860 | -78.96376 | 10038 ft | 297 kts | 231° |
| 2026-05-06 04:08 | 9.30613 | -78.98012 | 9763 ft | 291 kts | 231° |
| 2026-05-06 04:08 | 9.29379 | -78.99632 | 9419 ft | 291 kts | 231° |
| 2026-05-06 04:08 | 9.28142 | -79.01256 | 9085 ft | 291 kts | 231° |
| 2026-05-06 04:08 | 9.26911 | -79.02870 | 8768 ft | 290 kts | 231° |
| 2026-05-06 04:09 | 9.25684 | -79.04482 | 8460 ft | 289 kts | 231° |
| 2026-05-06 04:09 | 9.24460 | -79.06087 | 8147 ft | 288 kts | 231° |
| 2026-05-06 04:09 | 9.23238 | -79.07691 | 7833 ft | 287 kts | 231° |
| 2026-05-06 04:09 | 9.22018 | -79.09290 | 7539 ft | 287 kts | 232° |
| 2026-05-06 04:10 | 9.20802 | -79.10885 | 7226 ft | 286 kts | 232° |
| 2026-05-06 04:10 | 9.19580 | -79.12487 | 6917 ft | 286 kts | 232° |
| 2026-05-06 04:10 | 9.18367 | -79.14078 | 6609 ft | 286 kts | 232° |
| 2026-05-06 04:10 | 9.17150 | -79.15673 | 6296 ft | 286 kts | 232° |
| 2026-05-06 04:11 | 9.15953 | -79.17243 | 5968 ft | 286 kts | 232° |
| 2026-05-06 04:11 | 9.14740 | -79.18833 | 5651 ft | 285 kts | 232° |
| 2026-05-06 04:11 | 9.13527 | -79.20422 | 5342 ft | 285 kts | 232° |
| 2026-05-06 04:11 | 9.12285 | -79.21977 | 5028 ft | 284 kts | 225° |
| 2026-05-06 04:12 | 9.10769 | -79.23244 | 4732 ft | 282 kts | 215° |
| 2026-05-06 04:12 | 9.09168 | -79.24386 | 4420 ft | 281 kts | 214° |
| 2026-05-06 04:12 | 9.07571 | -79.25515 | 4150 ft | 279 kts | 214° |
| 2026-05-06 04:12 | 9.06525 | -79.26254 | 4051 ft | 273 kts | 214° |
| 2026-05-06 04:13 | 9.04998 | -79.27330 | 3928 ft | 260 kts | 214° |
| 2026-05-06 04:13 | 9.03093 | -79.28679 | 3822 ft | 242 kts | 214° |
| 2026-05-06 04:13 | 9.02193 | -79.29317 | 3735 ft | 236 kts | 214° |
| 2026-05-06 04:13 | 9.00863 | -79.30259 | 3593 ft | 229 kts | 214° |
| 2026-05-06 04:14 | 8.99581 | -79.31169 | 3463 ft | 221 kts | 214° |
| 2026-05-06 04:14 | 8.98342 | -79.32048 | 3349 ft | 213 kts | 214° |
| 2026-05-06 04:14 | 8.97172 | -79.32880 | 3268 ft | 199 kts | 214° |
| 2026-05-06 04:14 | 8.96063 | -79.33670 | 3143 ft | 192 kts | 214° |
| 2026-05-06 04:15 | 8.94972 | -79.34446 | 3037 ft | 192 kts | 216° |
| 2026-05-06 04:15 | 8.94125 | -79.35461 | 2941 ft | 189 kts | 249° |
| 2026-05-06 04:15 | 8.93902 | -79.36754 | 2917 ft | 188 kts | 276° |
| 2026-05-06 04:15 | 8.94087 | -79.38046 | 2865 ft | 189 kts | 280° |
| 2026-05-06 04:16 | 8.94253 | -79.39359 | 2723 ft | 187 kts | 279° |
| 2026-05-06 04:16 | 8.94397 | -79.40666 | 2596 ft | 187 kts | 278° |
| 2026-05-06 04:16 | 8.94579 | -79.41961 | 2421 ft | 184 kts | 292° |
| 2026-05-06 04:16 | 8.95276 | -79.42916 | 2228 ft | 159 kts | 330° |
| 2026-05-06 04:17 | 8.96291 | -79.43148 | 2001 ft | 147 kts | 6° |
| 2026-05-06 04:17 | 8.97306 | -79.42993 | 1796 ft | 148 kts | 12° |
| 2026-05-06 04:17 | 8.98311 | -79.42792 | 1587 ft | 147 kts | 16° |
| 2026-05-06 04:17 | 8.99259 | -79.42402 | 1355 ft | 145 kts | 27° |
| 2026-05-06 04:18 | 9.00125 | -79.41900 | 1130 ft | 143 kts | 30° |
| 2026-05-06 04:18 | 9.00992 | -79.41399 | 932 ft | 144 kts | 28° |
| 2026-05-06 04:18 | 9.01880 | -79.40907 | 733 ft | 148 kts | 28° |
| 2026-05-06 04:18 | 9.02772 | -79.40389 | 472 ft | 147 kts | 29° |
| 2026-05-06 04:19 | 9.03661 | -79.39881 | 296 ft | 148 kts | 27° |
| 2026-05-06 04:19 | 9.04530 | -79.39393 | 124 ft | 144 kts | 28° |
| 2026-05-06 04:19 | 9.05351 | -79.38927 | 33 ft | 120 kts | 30° |
| 2026-05-06 04:19 | 9.05883 | -79.38625 | 34 ft | 56 kts | 29° |
| 2026-05-06 04:20 | 9.06208 | -79.38439 | 34 ft | 40 kts | 29° |
| 2026-05-06 04:20 | 9.06335 | -79.38379 | 32 ft | 14 kts | 6° |
| 2026-05-06 04:20 | 9.06441 | -79.38377 | 32 ft | 16 kts | 0° |
| 2026-05-06 04:20 | 9.06537 | -79.38377 | 32 ft | 10 kts | 0° |
| 2026-05-06 04:21 | 9.06612 | -79.38379 | 32 ft | 12 kts | 348° |
| 2026-05-06 04:21 | 9.06662 | -79.38440 | 32 ft | 11 kts | 286° |
| 2026-05-06 04:21 | 9.06669 | -79.38490 | 32 ft | 8 kts | 298° |
| 2026-05-06 04:21 | 9.06698 | -79.38538 | 32 ft | 2 kts | 302° |
| 2026-05-06 04:22 | 9.06705 | -79.38551 | 32 ft | 0 kts | 301° |
| 2026-05-06 04:22 | 9.06706 | -79.38553 | 32 ft | 0 kts | 301° |